sensor_id;sensor_type;location;lat;lon;timestamp;P1;durP1;ratioP1;P2;durP2;ratioP2
65018;SDS011;66069;51.164;-114.452;2023-11-21T00:01:17;4.13;;;1.00;;
65018;SDS011;66069;51.164;-114.452;2023-11-21T00:03:43;2.45;;;0.80;;
65018;SDS011;66069;51.164;-114.452;2023-11-21T00:06:09;2.53;;;0.77;;
65018;SDS011;66069;51.164;-114.452;2023-11-21T00:08:36;2.80;;;0.80;;
65018;SDS011;66069;51.164;-114.452;2023-11-21T00:11:01;2.60;;;0.82;;
65018;SDS011;66069;51.164;-114.452;2023-11-21T00:13:27;3.65;;;1.08;;
65018;SDS011;66069;51.164;-114.452;2023-11-21T00:15:53;1.85;;;0.68;;
65018;SDS011;66069;51.164;-114.452;2023-11-21T00:18:20;2.03;;;0.75;;
65018;SDS011;66069;51.164;-114.452;2023-11-21T00:20:46;3.65;;;0.88;;
65018;SDS011;66069;51.164;-114.452;2023-11-21T00:23:12;2.35;;;0.65;;
65018;SDS011;66069;51.164;-114.452;2023-11-21T00:25:37;3.70;;;1.08;;
65018;SDS011;66069;51.164;-114.452;2023-11-21T00:28:03;2.83;;;0.77;;
65018;SDS011;66069;51.164;-114.452;2023-11-21T00:30:29;2.42;;;0.77;;
65018;SDS011;66069;51.164;-114.452;2023-11-21T00:32:56;3.58;;;0.95;;
65018;SDS011;66069;51.164;-114.452;2023-11-21T00:35:22;2.38;;;0.70;;
65018;SDS011;66069;51.164;-114.452;2023-11-21T00:37:48;2.60;;;0.60;;
65018;SDS011;66069;51.164;-114.452;2023-11-21T00:40:15;3.60;;;1.00;;
65018;SDS011;66069;51.164;-114.452;2023-11-21T00:42:41;4.63;;;0.60;;
65018;SDS011;66069;51.164;-114.452;2023-11-21T00:45:07;2.13;;;0.70;;
65018;SDS011;66069;51.164;-114.452;2023-11-21T00:47:33;4.15;;;0.90;;
65018;SDS011;66069;51.164;-114.452;2023-11-21T00:49:59;2.80;;;1.10;;
65018;SDS011;66069;51.164;-114.452;2023-11-21T00:52:24;2.55;;;0.75;;
65018;SDS011;66069;51.164;-114.452;2023-11-21T00:54:51;2.80;;;0.95;;
65018;SDS011;66069;51.164;-114.452;2023-11-21T00:57:17;2.65;;;0.98;;
65018;SDS011;66069;51.164;-114.452;2023-11-21T00:59:42;2.65;;;0.65;;
65018;SDS011;66069;51.164;-114.452;2023-11-21T01:02:08;3.63;;;0.80;;
65018;SDS011;66069;51.164;-114.452;2023-11-21T01:04:36;2.50;;;0.70;;
65018;SDS011;66069;51.164;-114.452;2023-11-21T01:07:02;3.58;;;0.63;;
65018;SDS011;66069;51.164;-114.452;2023-11-21T01:09:28;2.97;;;0.90;;
65018;SDS011;66069;51.164;-114.452;2023-11-21T01:11:55;3.42;;;0.90;;
65018;SDS011;66069;51.164;-114.452;2023-11-21T01:14:22;2.80;;;1.25;;
65018;SDS011;66069;51.164;-114.452;2023-11-21T01:16:48;3.47;;;0.60;;
65018;SDS011;66069;51.164;-114.452;2023-11-21T01:19:14;3.58;;;0.95;;
65018;SDS011;66069;51.164;-114.452;2023-11-21T01:21:40;2.00;;;0.60;;
65018;SDS011;66069;51.164;-114.452;2023-11-21T01:24:06;2.17;;;0.88;;
65018;SDS011;66069;51.164;-114.452;2023-11-21T01:26:32;3.83;;;1.00;;
65018;SDS011;66069;51.164;-114.452;2023-11-21T01:28:59;2.13;;;0.60;;
65018;SDS011;66069;51.164;-114.452;2023-11-21T01:31:24;2.20;;;0.77;;
65018;SDS011;66069;51.164;-114.452;2023-11-21T01:33:54;2.20;;;0.77;;
65018;SDS011;66069;51.164;-114.452;2023-11-21T01:36:20;1.92;;;0.52;;
65018;SDS011;66069;51.164;-114.452;2023-11-21T01:38:46;2.60;;;0.70;;
65018;SDS011;66069;51.164;-114.452;2023-11-21T01:41:13;2.88;;;0.68;;
65018;SDS011;66069;51.164;-114.452;2023-11-21T01:43:39;1.58;;;0.55;;
65018;SDS011;66069;51.164;-114.452;2023-11-21T01:46:05;3.17;;;1.35;;
65018;SDS011;66069;51.164;-114.452;2023-11-21T01:48:31;1.92;;;0.63;;
65018;SDS011;66069;51.164;-114.452;2023-11-21T01:50:58;3.25;;;0.75;;
65018;SDS011;66069;51.164;-114.452;2023-11-21T01:53:24;1.65;;;0.70;;
65018;SDS011;66069;51.164;-114.452;2023-11-21T01:55:51;1.67;;;0.55;;
65018;SDS011;66069;51.164;-114.452;2023-11-21T01:58:17;2.40;;;0.80;;
65018;SDS011;66069;51.164;-114.452;2023-11-21T02:00:43;2.70;;;0.70;;
65018;SDS011;66069;51.164;-114.452;2023-11-21T02:03:09;1.05;;;0.50;;
65018;SDS011;66069;51.164;-114.452;2023-11-21T02:05:35;1.95;;;0.68;;
65018;SDS011;66069;51.164;-114.452;2023-11-21T02:08:02;3.08;;;0.70;;
65018;SDS011;66069;51.164;-114.452;2023-11-21T02:10:28;2.40;;;0.60;;
65018;SDS011;66069;51.164;-114.452;2023-11-21T02:12:56;2.72;;;0.70;;
65018;SDS011;66069;51.164;-114.452;2023-11-21T02:15:23;3.47;;;0.80;;
65018;SDS011;66069;51.164;-114.452;2023-11-21T02:17:53;3.22;;;0.80;;
65018;SDS011;66069;51.164;-114.452;2023-11-21T02:20:23;1.85;;;0.52;;
65018;SDS011;66069;51.164;-114.452;2023-11-21T02:22:50;3.55;;;0.80;;
65018;SDS011;66069;51.164;-114.452;2023-11-21T02:25:23;2.05;;;0.70;;
65018;SDS011;66069;51.164;-114.452;2023-11-21T02:27:49;3.00;;;0.75;;
65018;SDS011;66069;51.164;-114.452;2023-11-21T02:30:16;2.38;;;0.90;;
65018;SDS011;66069;51.164;-114.452;2023-11-21T02:32:42;2.60;;;0.90;;
65018;SDS011;66069;51.164;-114.452;2023-11-21T02:35:26;2.25;;;0.60;;
65018;SDS011;66069;51.164;-114.452;2023-11-21T02:37:52;1.70;;;0.80;;
65018;SDS011;66069;51.164;-114.452;2023-11-21T02:40:18;5.22;;;1.30;;
65018;SDS011;66069;51.164;-114.452;2023-11-21T02:42:48;2.20;;;1.00;;
65018;SDS011;66069;51.164;-114.452;2023-11-21T02:45:16;2.30;;;0.73;;
65018;SDS011;66069;51.164;-114.452;2023-11-21T02:47:42;3.80;;;1.30;;
65018;SDS011;66069;51.164;-114.452;2023-11-21T02:50:08;3.08;;;1.00;;
65018;SDS011;66069;51.164;-114.452;2023-11-21T02:52:34;2.92;;;1.13;;
65018;SDS011;66069;51.164;-114.452;2023-11-21T02:55:01;2.10;;;0.98;;
65018;SDS011;66069;51.164;-114.452;2023-11-21T02:57:27;2.58;;;0.85;;
65018;SDS011;66069;51.164;-114.452;2023-11-21T02:59:53;1.95;;;1.00;;
65018;SDS011;66069;51.164;-114.452;2023-11-21T03:02:18;3.45;;;0.95;;
65018;SDS011;66069;51.164;-114.452;2023-11-21T03:04:44;5.38;;;0.95;;
65018;SDS011;66069;51.164;-114.452;2023-11-21T03:07:10;1.88;;;0.63;;
65018;SDS011;66069;51.164;-114.452;2023-11-21T03:09:36;4.45;;;1.17;;
65018;SDS011;66069;51.164;-114.452;2023-11-21T03:12:02;2.10;;;0.70;;
65018;SDS011;66069;51.164;-114.452;2023-11-21T03:14:28;2.70;;;1.00;;
65018;SDS011;66069;51.164;-114.452;2023-11-21T03:16:53;3.25;;;0.95;;
65018;SDS011;66069;51.164;-114.452;2023-11-21T03:19:19;3.63;;;0.88;;
65018;SDS011;66069;51.164;-114.452;2023-11-21T03:21:45;3.72;;;0.95;;
65018;SDS011;66069;51.164;-114.452;2023-11-21T03:24:11;2.00;;;0.70;;
65018;SDS011;66069;51.164;-114.452;2023-11-21T03:26:37;2.83;;;0.80;;
65018;SDS011;66069;51.164;-114.452;2023-11-21T03:29:03;2.22;;;0.68;;
65018;SDS011;66069;51.164;-114.452;2023-11-21T03:31:30;2.58;;;0.88;;
65018;SDS011;66069;51.164;-114.452;2023-11-21T03:33:56;3.85;;;1.10;;
65018;SDS011;66069;51.164;-114.452;2023-11-21T03:36:22;3.28;;;0.80;;
65018;SDS011;66069;51.164;-114.452;2023-11-21T03:38:53;2.85;;;0.77;;
65018;SDS011;66069;51.164;-114.452;2023-11-21T03:41:20;2.30;;;0.93;;
65018;SDS011;66069;51.164;-114.452;2023-11-21T03:43:46;1.67;;;0.80;;
65018;SDS011;66069;51.164;-114.452;2023-11-21T03:46:12;4.38;;;1.35;;
65018;SDS011;66069;51.164;-114.452;2023-11-21T03:48:38;2.08;;;0.80;;
65018;SDS011;66069;51.164;-114.452;2023-11-21T03:51:04;2.97;;;0.98;;
65018;SDS011;66069;51.164;-114.452;2023-11-21T03:53:30;2.15;;;0.80;;
65018;SDS011;66069;51.164;-114.452;2023-11-21T03:55:55;1.60;;;0.63;;
65018;SDS011;66069;51.164;-114.452;2023-11-21T03:58:21;2.30;;;0.82;;
65018;SDS011;66069;51.164;-114.452;2023-11-21T04:00:47;2.53;;;0.80;;
65018;SDS011;66069;51.164;-114.452;2023-11-21T04:03:15;2.15;;;0.93;;
65018;SDS011;66069;51.164;-114.452;2023-11-21T04:05:41;2.58;;;1.05;;
65018;SDS011;66069;51.164;-114.452;2023-11-21T04:08:07;2.33;;;0.70;;
65018;SDS011;66069;51.164;-114.452;2023-11-21T04:10:33;1.88;;;0.70;;
65018;SDS011;66069;51.164;-114.452;2023-11-21T04:12:59;1.75;;;0.60;;
65018;SDS011;66069;51.164;-114.452;2023-11-21T04:15:25;2.03;;;0.85;;
65018;SDS011;66069;51.164;-114.452;2023-11-21T04:17:51;1.85;;;0.75;;
65018;SDS011;66069;51.164;-114.452;2023-11-21T04:20:17;2.28;;;0.88;;
65018;SDS011;66069;51.164;-114.452;2023-11-21T04:22:43;1.58;;;0.70;;
65018;SDS011;66069;51.164;-114.452;2023-11-21T04:25:13;2.38;;;0.73;;
65018;SDS011;66069;51.164;-114.452;2023-11-21T04:27:39;1.98;;;0.68;;
65018;SDS011;66069;51.164;-114.452;2023-11-21T04:30:06;2.42;;;0.80;;
65018;SDS011;66069;51.164;-114.452;2023-11-21T04:32:32;2.65;;;0.77;;
65018;SDS011;66069;51.164;-114.452;2023-11-21T04:34:58;1.85;;;0.95;;
65018;SDS011;66069;51.164;-114.452;2023-11-21T04:37:24;2.17;;;0.63;;
65018;SDS011;66069;51.164;-114.452;2023-11-21T04:39:50;3.45;;;0.82;;
65018;SDS011;66069;51.164;-114.452;2023-11-21T04:42:18;2.25;;;0.63;;
65018;SDS011;66069;51.164;-114.452;2023-11-21T04:44:43;2.10;;;0.80;;
65018;SDS011;66069;51.164;-114.452;2023-11-21T04:47:09;4.07;;;0.88;;
65018;SDS011;66069;51.164;-114.452;2023-11-21T04:49:35;2.60;;;0.70;;
65018;SDS011;66069;51.164;-114.452;2023-11-21T04:52:01;1.65;;;0.75;;
65018;SDS011;66069;51.164;-114.452;2023-11-21T04:54:29;1.70;;;0.80;;
65018;SDS011;66069;51.164;-114.452;2023-11-21T04:56:55;1.10;;;0.40;;
65018;SDS011;66069;51.164;-114.452;2023-11-21T04:59:21;1.52;;;0.57;;
65018;SDS011;66069;51.164;-114.452;2023-11-21T05:01:50;1.98;;;0.68;;
65018;SDS011;66069;51.164;-114.452;2023-11-21T05:04:16;2.08;;;0.70;;
65018;SDS011;66069;51.164;-114.452;2023-11-21T05:06:42;2.05;;;0.70;;
65018;SDS011;66069;51.164;-114.452;2023-11-21T05:09:08;2.60;;;0.60;;
65018;SDS011;66069;51.164;-114.452;2023-11-21T05:11:37;2.53;;;0.88;;
65018;SDS011;66069;51.164;-114.452;2023-11-21T05:14:04;2.55;;;0.75;;
65018;SDS011;66069;51.164;-114.452;2023-11-21T05:16:30;2.65;;;0.73;;
65018;SDS011;66069;51.164;-114.452;2023-11-21T05:18:56;2.70;;;0.63;;
65018;SDS011;66069;51.164;-114.452;2023-11-21T05:21:26;2.78;;;0.82;;
65018;SDS011;66069;51.164;-114.452;2023-11-21T05:23:52;2.35;;;0.85;;
65018;SDS011;66069;51.164;-114.452;2023-11-21T05:26:18;1.80;;;0.55;;
65018;SDS011;66069;51.164;-114.452;2023-11-21T05:28:44;1.65;;;0.57;;
65018;SDS011;66069;51.164;-114.452;2023-11-21T05:31:10;1.25;;;0.50;;
65018;SDS011;66069;51.164;-114.452;2023-11-21T05:33:36;4.85;;;0.80;;
65018;SDS011;66069;51.164;-114.452;2023-11-21T05:36:02;1.80;;;0.70;;
65018;SDS011;66069;51.164;-114.452;2023-11-21T05:38:28;1.42;;;0.70;;
65018;SDS011;66069;51.164;-114.452;2023-11-21T05:40:54;1.85;;;0.60;;
65018;SDS011;66069;51.164;-114.452;2023-11-21T05:43:20;0.93;;;0.50;;
65018;SDS011;66069;51.164;-114.452;2023-11-21T05:45:46;1.73;;;0.60;;
65018;SDS011;66069;51.164;-114.452;2023-11-21T05:48:12;1.77;;;0.60;;
65018;SDS011;66069;51.164;-114.452;2023-11-21T05:50:38;2.63;;;0.90;;
65018;SDS011;66069;51.164;-114.452;2023-11-21T05:53:03;2.20;;;0.77;;
65018;SDS011;66069;51.164;-114.452;2023-11-21T05:55:30;1.33;;;0.55;;
65018;SDS011;66069;51.164;-114.452;2023-11-21T05:57:56;2.47;;;0.60;;
65018;SDS011;66069;51.164;-114.452;2023-11-21T06:00:22;1.83;;;0.63;;
65018;SDS011;66069;51.164;-114.452;2023-11-21T06:02:53;1.58;;;0.60;;
65018;SDS011;66069;51.164;-114.452;2023-11-21T06:05:22;1.42;;;0.70;;
65018;SDS011;66069;51.164;-114.452;2023-11-21T06:07:49;1.05;;;0.45;;
65018;SDS011;66069;51.164;-114.452;2023-11-21T06:10:14;1.67;;;0.52;;
65018;SDS011;66069;51.164;-114.452;2023-11-21T06:12:43;2.20;;;1.20;;
65018;SDS011;66069;51.164;-114.452;2023-11-21T06:15:09;1.48;;;0.50;;
65018;SDS011;66069;51.164;-114.452;2023-11-21T06:17:39;2.17;;;0.60;;
65018;SDS011;66069;51.164;-114.452;2023-11-21T06:20:09;2.00;;;0.63;;
65018;SDS011;66069;51.164;-114.452;2023-11-21T06:22:36;1.52;;;0.63;;
65018;SDS011;66069;51.164;-114.452;2023-11-21T06:25:02;1.67;;;0.65;;
65018;SDS011;66069;51.164;-114.452;2023-11-21T06:27:31;1.67;;;0.68;;
65018;SDS011;66069;51.164;-114.452;2023-11-21T06:29:56;1.45;;;0.60;;
65018;SDS011;66069;51.164;-114.452;2023-11-21T06:32:22;1.48;;;0.70;;
65018;SDS011;66069;51.164;-114.452;2023-11-21T06:34:48;1.45;;;0.40;;
65018;SDS011;66069;51.164;-114.452;2023-11-21T06:37:15;1.20;;;0.50;;
65018;SDS011;66069;51.164;-114.452;2023-11-21T06:39:40;2.15;;;0.60;;
65018;SDS011;66069;51.164;-114.452;2023-11-21T06:42:06;1.58;;;0.50;;
65018;SDS011;66069;51.164;-114.452;2023-11-21T06:44:32;2.80;;;0.60;;
65018;SDS011;66069;51.164;-114.452;2023-11-21T06:47:03;1.38;;;0.50;;
65018;SDS011;66069;51.164;-114.452;2023-11-21T06:49:29;1.77;;;0.52;;
65018;SDS011;66069;51.164;-114.452;2023-11-21T06:51:56;0.90;;;0.40;;
65018;SDS011;66069;51.164;-114.452;2023-11-21T06:54:22;1.30;;;0.50;;
65018;SDS011;66069;51.164;-114.452;2023-11-21T06:56:48;2.20;;;0.80;;
65018;SDS011;66069;51.164;-114.452;2023-11-21T06:59:14;1.35;;;0.65;;
65018;SDS011;66069;51.164;-114.452;2023-11-21T07:01:40;1.15;;;0.43;;
65018;SDS011;66069;51.164;-114.452;2023-11-21T07:04:07;1.35;;;0.40;;
65018;SDS011;66069;51.164;-114.452;2023-11-21T07:06:34;1.25;;;0.38;;
65018;SDS011;66069;51.164;-114.452;2023-11-21T07:09:00;1.23;;;0.52;;
65018;SDS011;66069;51.164;-114.452;2023-11-21T07:11:27;1.33;;;0.52;;
65018;SDS011;66069;51.164;-114.452;2023-11-21T07:13:52;2.15;;;0.65;;
65018;SDS011;66069;51.164;-114.452;2023-11-21T07:16:18;2.05;;;0.65;;
65018;SDS011;66069;51.164;-114.452;2023-11-21T07:18:44;1.77;;;0.63;;
65018;SDS011;66069;51.164;-114.452;2023-11-21T07:21:10;2.00;;;0.70;;
65018;SDS011;66069;51.164;-114.452;2023-11-21T07:23:40;2.15;;;0.60;;
65018;SDS011;66069;51.164;-114.452;2023-11-21T07:26:06;0.82;;;0.40;;
65018;SDS011;66069;51.164;-114.452;2023-11-21T07:28:34;1.35;;;0.50;;
65018;SDS011;66069;51.164;-114.452;2023-11-21T07:31:01;1.45;;;0.50;;
65018;SDS011;66069;51.164;-114.452;2023-11-21T07:33:27;1.08;;;0.45;;
65018;SDS011;66069;51.164;-114.452;2023-11-21T07:35:52;1.27;;;0.40;;
65018;SDS011;66069;51.164;-114.452;2023-11-21T07:38:18;2.60;;;0.70;;
65018;SDS011;66069;51.164;-114.452;2023-11-21T07:40:44;0.93;;;0.43;;
65018;SDS011;66069;51.164;-114.452;2023-11-21T07:43:10;1.88;;;0.60;;
65018;SDS011;66069;51.164;-114.452;2023-11-21T07:45:36;1.60;;;0.50;;
65018;SDS011;66069;51.164;-114.452;2023-11-21T07:48:02;1.30;;;0.38;;
65018;SDS011;66069;51.164;-114.452;2023-11-21T07:50:30;0.77;;;0.32;;
65018;SDS011;66069;51.164;-114.452;2023-11-21T07:52:57;1.27;;;0.50;;
65018;SDS011;66069;51.164;-114.452;2023-11-21T07:55:23;2.30;;;0.80;;
65018;SDS011;66069;51.164;-114.452;2023-11-21T07:57:50;0.73;;;0.35;;
65018;SDS011;66069;51.164;-114.452;2023-11-21T08:00:16;1.35;;;0.50;;
65018;SDS011;66069;51.164;-114.452;2023-11-21T08:02:42;1.45;;;0.50;;
65018;SDS011;66069;51.164;-114.452;2023-11-21T08:05:08;1.17;;;0.45;;
65018;SDS011;66069;51.164;-114.452;2023-11-21T08:07:34;1.33;;;0.57;;
65018;SDS011;66069;51.164;-114.452;2023-11-21T08:10:00;0.90;;;0.40;;
65018;SDS011;66069;51.164;-114.452;2023-11-21T08:12:26;1.70;;;0.50;;
65018;SDS011;66069;51.164;-114.452;2023-11-21T08:14:53;1.73;;;0.40;;
65018;SDS011;66069;51.164;-114.452;2023-11-21T08:17:18;0.98;;;0.47;;
65018;SDS011;66069;51.164;-114.452;2023-11-21T08:19:45;1.35;;;0.50;;
65018;SDS011;66069;51.164;-114.452;2023-11-21T08:22:15;1.67;;;0.40;;
65018;SDS011;66069;51.164;-114.452;2023-11-21T08:24:43;0.88;;;0.40;;
65018;SDS011;66069;51.164;-114.452;2023-11-21T08:27:09;0.80;;;0.38;;
65018;SDS011;66069;51.164;-114.452;2023-11-21T08:29:35;1.10;;;0.47;;
65018;SDS011;66069;51.164;-114.452;2023-11-21T08:32:01;1.40;;;0.50;;
65018;SDS011;66069;51.164;-114.452;2023-11-21T08:34:27;1.10;;;0.47;;
65018;SDS011;66069;51.164;-114.452;2023-11-21T08:36:54;1.05;;;0.40;;
65018;SDS011;66069;51.164;-114.452;2023-11-21T08:39:20;0.95;;;0.38;;
65018;SDS011;66069;51.164;-114.452;2023-11-21T08:41:49;1.67;;;0.50;;
65018;SDS011;66069;51.164;-114.452;2023-11-21T08:44:16;2.53;;;0.65;;
65018;SDS011;66069;51.164;-114.452;2023-11-21T08:46:43;1.27;;;0.50;;
65018;SDS011;66069;51.164;-114.452;2023-11-21T08:49:11;2.10;;;0.80;;
65018;SDS011;66069;51.164;-114.452;2023-11-21T08:51:37;1.58;;;0.63;;
65018;SDS011;66069;51.164;-114.452;2023-11-21T08:54:03;1.20;;;0.45;;
65018;SDS011;66069;51.164;-114.452;2023-11-21T08:56:33;1.03;;;0.40;;
65018;SDS011;66069;51.164;-114.452;2023-11-21T08:58:59;0.80;;;0.43;;
65018;SDS011;66069;51.164;-114.452;2023-11-21T09:01:27;1.10;;;0.45;;
65018;SDS011;66069;51.164;-114.452;2023-11-21T09:03:53;0.82;;;0.50;;
65018;SDS011;66069;51.164;-114.452;2023-11-21T09:06:19;0.73;;;0.30;;
65018;SDS011;66069;51.164;-114.452;2023-11-21T09:08:45;1.13;;;0.40;;
65018;SDS011;66069;51.164;-114.452;2023-11-21T09:11:11;0.98;;;0.40;;
65018;SDS011;66069;51.164;-114.452;2023-11-21T09:13:36;1.35;;;0.50;;
65018;SDS011;66069;51.164;-114.452;2023-11-21T09:16:02;1.40;;;0.50;;
65018;SDS011;66069;51.164;-114.452;2023-11-21T09:18:28;1.67;;;0.43;;
65018;SDS011;66069;51.164;-114.452;2023-11-21T09:20:54;1.45;;;0.40;;
65018;SDS011;66069;51.164;-114.452;2023-11-21T09:23:20;1.23;;;0.50;;
65018;SDS011;66069;51.164;-114.452;2023-11-21T09:25:46;1.10;;;0.40;;
65018;SDS011;66069;51.164;-114.452;2023-11-21T09:28:15;1.38;;;0.45;;
65018;SDS011;66069;51.164;-114.452;2023-11-21T09:30:42;2.80;;;0.60;;
65018;SDS011;66069;51.164;-114.452;2023-11-21T09:33:08;1.10;;;0.45;;
65018;SDS011;66069;51.164;-114.452;2023-11-21T09:35:37;0.95;;;0.40;;
65018;SDS011;66069;51.164;-114.452;2023-11-21T09:38:03;0.98;;;0.28;;
65018;SDS011;66069;51.164;-114.452;2023-11-21T09:40:35;0.73;;;0.30;;
65018;SDS011;66069;51.164;-114.452;2023-11-21T09:43:05;0.90;;;0.30;;
65018;SDS011;66069;51.164;-114.452;2023-11-21T09:45:35;0.88;;;0.40;;
65018;SDS011;66069;51.164;-114.452;2023-11-21T09:48:01;0.93;;;0.32;;
65018;SDS011;66069;51.164;-114.452;2023-11-21T09:50:27;2.03;;;0.60;;
65018;SDS011;66069;51.164;-114.452;2023-11-21T09:53:09;1.73;;;0.52;;
65018;SDS011;66069;51.164;-114.452;2023-11-21T09:55:38;0.98;;;0.40;;
65018;SDS011;66069;51.164;-114.452;2023-11-21T09:58:07;1.15;;;0.40;;
65018;SDS011;66069;51.164;-114.452;2023-11-21T10:00:33;1.58;;;0.60;;
65018;SDS011;66069;51.164;-114.452;2023-11-21T10:02:59;0.77;;;0.40;;
65018;SDS011;66069;51.164;-114.452;2023-11-21T10:05:25;0.90;;;0.40;;
65018;SDS011;66069;51.164;-114.452;2023-11-21T10:07:51;0.50;;;0.25;;
65018;SDS011;66069;51.164;-114.452;2023-11-21T10:10:19;1.65;;;0.50;;
65018;SDS011;66069;51.164;-114.452;2023-11-21T10:12:49;0.88;;;0.40;;
65018;SDS011;66069;51.164;-114.452;2023-11-21T10:15:16;0.90;;;0.40;;
65018;SDS011;66069;51.164;-114.452;2023-11-21T10:17:42;0.68;;;0.30;;
65018;SDS011;66069;51.164;-114.452;2023-11-21T10:20:13;1.02;;;0.40;;
65018;SDS011;66069;51.164;-114.452;2023-11-21T10:22:42;1.58;;;0.50;;
65018;SDS011;66069;51.164;-114.452;2023-11-21T10:25:11;0.60;;;0.30;;
65018;SDS011;66069;51.164;-114.452;2023-11-21T10:27:40;0.93;;;0.40;;
65018;SDS011;66069;51.164;-114.452;2023-11-21T10:30:06;0.82;;;0.30;;
65018;SDS011;66069;51.164;-114.452;2023-11-21T10:32:33;1.17;;;0.40;;
65018;SDS011;66069;51.164;-114.452;2023-11-21T10:34:59;0.65;;;0.50;;
65018;SDS011;66069;51.164;-114.452;2023-11-21T10:37:32;0.60;;;0.35;;
65018;SDS011;66069;51.164;-114.452;2023-11-21T10:39:58;1.63;;;0.68;;
65018;SDS011;66069;51.164;-114.452;2023-11-21T10:42:24;0.80;;;0.30;;
65018;SDS011;66069;51.164;-114.452;2023-11-21T10:44:51;1.30;;;0.43;;
65018;SDS011;66069;51.164;-114.452;2023-11-21T10:47:17;0.50;;;0.30;;
65018;SDS011;66069;51.164;-114.452;2023-11-21T10:49:44;1.25;;;0.40;;
65018;SDS011;66069;51.164;-114.452;2023-11-21T10:52:13;0.88;;;0.40;;
65018;SDS011;66069;51.164;-114.452;2023-11-21T10:54:43;0.82;;;0.32;;
65018;SDS011;66069;51.164;-114.452;2023-11-21T10:57:09;1.00;;;0.30;;
65018;SDS011;66069;51.164;-114.452;2023-11-21T10:59:36;1.25;;;0.47;;
65018;SDS011;66069;51.164;-114.452;2023-11-21T11:02:07;0.90;;;0.40;;
65018;SDS011;66069;51.164;-114.452;2023-11-21T11:04:36;0.68;;;0.30;;
65018;SDS011;66069;51.164;-114.452;2023-11-21T11:07:03;0.95;;;0.30;;
65018;SDS011;66069;51.164;-114.452;2023-11-21T11:09:31;0.88;;;0.40;;
65018;SDS011;66069;51.164;-114.452;2023-11-21T11:12:01;0.63;;;0.30;;
65018;SDS011;66069;51.164;-114.452;2023-11-21T11:14:27;1.88;;;0.73;;
65018;SDS011;66069;51.164;-114.452;2023-11-21T11:16:53;0.57;;;0.30;;
65018;SDS011;66069;51.164;-114.452;2023-11-21T11:19:21;0.40;;;0.28;;
65018;SDS011;66069;51.164;-114.452;2023-11-21T11:22:00;0.95;;;0.32;;
65018;SDS011;66069;51.164;-114.452;2023-11-21T11:27:11;1.25;;;0.38;;
65018;SDS011;66069;51.164;-114.452;2023-11-21T11:29:44;1.02;;;0.50;;
65018;SDS011;66069;51.164;-114.452;2023-11-21T11:34:43;1.05;;;0.30;;
65018;SDS011;66069;51.164;-114.452;2023-11-21T11:37:11;1.30;;;0.57;;
65018;SDS011;66069;51.164;-114.452;2023-11-21T11:39:41;1.17;;;0.50;;
65018;SDS011;66069;51.164;-114.452;2023-11-21T11:42:16;1.20;;;0.40;;
65018;SDS011;66069;51.164;-114.452;2023-11-21T11:47:14;0.63;;;0.30;;
65018;SDS011;66069;51.164;-114.452;2023-11-21T11:55:02;1.10;;;0.47;;
65018;SDS011;66069;51.164;-114.452;2023-11-21T11:57:32;0.55;;;0.20;;
65018;SDS011;66069;51.164;-114.452;2023-11-21T12:00:15;0.50;;;0.22;;
65018;SDS011;66069;51.164;-114.452;2023-11-21T12:02:51;0.38;;;0.28;;
65018;SDS011;66069;51.164;-114.452;2023-11-21T12:05:18;0.60;;;0.20;;
65018;SDS011;66069;51.164;-114.452;2023-11-21T12:07:47;2.08;;;0.45;;
65018;SDS011;66069;51.164;-114.452;2023-11-21T12:10:15;0.45;;;0.20;;
65018;SDS011;66069;51.164;-114.452;2023-11-21T12:12:43;1.05;;;0.30;;
65018;SDS011;66069;51.164;-114.452;2023-11-21T12:15:10;0.68;;;0.40;;
65018;SDS011;66069;51.164;-114.452;2023-11-21T12:17:37;1.00;;;0.40;;
65018;SDS011;66069;51.164;-114.452;2023-11-21T12:20:04;0.57;;;0.28;;
65018;SDS011;66069;51.164;-114.452;2023-11-21T12:22:31;1.13;;;0.47;;
65018;SDS011;66069;51.164;-114.452;2023-11-21T12:24:57;1.17;;;0.30;;
65018;SDS011;66069;51.164;-114.452;2023-11-21T12:27:23;1.30;;;0.40;;
65018;SDS011;66069;51.164;-114.452;2023-11-21T12:29:48;0.68;;;0.30;;
65018;SDS011;66069;51.164;-114.452;2023-11-21T12:32:14;1.83;;;0.40;;
65018;SDS011;66069;51.164;-114.452;2023-11-21T12:34:43;1.08;;;0.40;;
65018;SDS011;66069;51.164;-114.452;2023-11-21T12:37:09;0.28;;;0.20;;
65018;SDS011;66069;51.164;-114.452;2023-11-21T12:39:35;0.75;;;0.20;;
65018;SDS011;66069;51.164;-114.452;2023-11-21T12:42:01;0.57;;;0.30;;
65018;SDS011;66069;51.164;-114.452;2023-11-21T12:44:27;0.40;;;0.20;;
65018;SDS011;66069;51.164;-114.452;2023-11-21T12:46:53;0.68;;;0.35;;
65018;SDS011;66069;51.164;-114.452;2023-11-21T12:49:19;0.65;;;0.22;;
65018;SDS011;66069;51.164;-114.452;2023-11-21T12:51:47;0.85;;;0.30;;
65018;SDS011;66069;51.164;-114.452;2023-11-21T12:54:13;1.08;;;0.40;;
65018;SDS011;66069;51.164;-114.452;2023-11-21T12:56:39;0.80;;;0.40;;
65018;SDS011;66069;51.164;-114.452;2023-11-21T12:59:05;0.28;;;0.20;;
65018;SDS011;66069;51.164;-114.452;2023-11-21T13:01:31;0.40;;;0.20;;
65018;SDS011;66069;51.164;-114.452;2023-11-21T13:03:57;0.85;;;0.30;;
65018;SDS011;66069;51.164;-114.452;2023-11-21T13:08:54;0.85;;;0.38;;
65018;SDS011;66069;51.164;-114.452;2023-11-21T13:11:20;1.10;;;0.43;;
65018;SDS011;66069;51.164;-114.452;2023-11-21T13:13:46;0.57;;;0.30;;
65018;SDS011;66069;51.164;-114.452;2023-11-21T13:16:11;0.55;;;0.22;;
65018;SDS011;66069;51.164;-114.452;2023-11-21T13:18:38;0.90;;;0.30;;
65018;SDS011;66069;51.164;-114.452;2023-11-21T13:21:07;0.77;;;0.30;;
65018;SDS011;66069;51.164;-114.452;2023-11-21T13:23:39;0.30;;;0.22;;
65018;SDS011;66069;51.164;-114.452;2023-11-21T13:26:07;0.32;;;0.17;;
65018;SDS011;66069;51.164;-114.452;2023-11-21T13:28:34;0.90;;;0.43;;
65018;SDS011;66069;51.164;-114.452;2023-11-21T13:31:00;0.60;;;0.30;;
65018;SDS011;66069;51.164;-114.452;2023-11-21T13:33:46;0.35;;;0.30;;
65018;SDS011;66069;51.164;-114.452;2023-11-21T13:38:48;0.32;;;0.20;;
65018;SDS011;66069;51.164;-114.452;2023-11-21T13:41:14;0.77;;;0.30;;
65018;SDS011;66069;51.164;-114.452;2023-11-21T13:43:40;0.57;;;0.30;;
65018;SDS011;66069;51.164;-114.452;2023-11-21T13:46:09;0.68;;;0.20;;
65018;SDS011;66069;51.164;-114.452;2023-11-21T13:48:47;0.43;;;0.20;;
65018;SDS011;66069;51.164;-114.452;2023-11-21T13:51:18;0.40;;;0.20;;
65018;SDS011;66069;51.164;-114.452;2023-11-21T13:53:46;0.45;;;0.30;;
65018;SDS011;66069;51.164;-114.452;2023-11-21T13:56:20;0.28;;;0.20;;
65018;SDS011;66069;51.164;-114.452;2023-11-21T13:58:52;0.47;;;0.30;;
65018;SDS011;66069;51.164;-114.452;2023-11-21T14:01:19;0.43;;;0.20;;
65018;SDS011;66069;51.164;-114.452;2023-11-21T14:04:02;0.30;;;0.20;;
65018;SDS011;66069;51.164;-114.452;2023-11-21T14:06:47;0.32;;;0.20;;
65018;SDS011;66069;51.164;-114.452;2023-11-21T14:09:17;0.38;;;0.20;;
65018;SDS011;66069;51.164;-114.452;2023-11-21T14:11:56;0.70;;;0.30;;
65018;SDS011;66069;51.164;-114.452;2023-11-21T14:14:23;0.32;;;0.20;;
65018;SDS011;66069;51.164;-114.452;2023-11-21T14:16:50;0.30;;;0.20;;
65018;SDS011;66069;51.164;-114.452;2023-11-21T14:19:17;0.50;;;0.20;;
65018;SDS011;66069;51.164;-114.452;2023-11-21T14:21:43;0.60;;;0.30;;
65018;SDS011;66069;51.164;-114.452;2023-11-21T14:24:09;0.30;;;0.30;;
65018;SDS011;66069;51.164;-114.452;2023-11-21T14:26:35;0.38;;;0.20;;